Terminal Aerodrome Forecast
Issued by NWS Upton, NY

Home | Current Version | Previous Version | Text Only | Print | Product List | Glossary On
Versions: 1 2 3 4 5 6 7 8 9 10 11 12 13 14 15 16 17 18 19 20 21 22 23 24 25 26 27 28 29 30 31 32 33 34 35 36 37
000
FTUS41 KOKX 251120
TAFISP
TAF
KISP 251120Z 2512/2612 11011KT 2SM -RA BR OVC003 WS020/14045KT
      TEMPO 2513/2516 1/2SM +RA FG
     FM251600 10016G22KT 2SM -RA BR OVC005
     FM251800 14007KT 3SM -SHRA BR OVC006
     FM252100 VRB05KT 1/2SM -SHRA FG OVC004
     FM260900 28006KT 2SM BR BKN010=

USA.gov is the U.S. government's official web portal to all federal, state and local government web resources and services.